Time;durP1;ratioP1;P1;durP2;ratioP2;P2;SDS_P1;SDS_P2;PMS_P1;PMS_P2;Temp;Humidity;BMP_temperature;BMP_pressure;BME280_temperature;BME280_humidity;BME280_pressure;Samples;Min_cycle;Max_cycle;Signal;HPM_P1;HPM_P2
2023/04/26 00:00:28;;;;;;;3.80;1.67;;;12.70;77.80;;;;;;6087508;23;20389;-46
2023/04/26 00:02:58;;;;;;;2.27;1.00;;;12.70;77.90;;;;;;6087629;23;20400;-45
2023/04/26 00:05:28;;;;;;;2.17;1.63;;;12.70;77.80;;;;;;6086151;23;20490;-44
2023/04/26 00:07:57;;;;;;;2.37;1.10;;;12.60;77.80;;;;;;6087315;23;20894;-44
2023/04/26 00:10:25;;;;;;;2.47;1.30;;;12.60;77.70;;;;;;6088613;23;20457;-45
2023/04/26 00:12:54;;;;;;;2.53;1.10;;;12.70;77.80;;;;;;6087792;23;20432;-45
2023/04/26 00:15:24;;;;;;;1.93;1.10;;;12.60;77.80;;;;;;6085950;23;20552;-44
2023/04/26 00:17:53;;;;;;;3.20;1.53;;;12.60;77.80;;;;;;6087276;23;20384;-45
2023/04/26 00:20:21;;;;;;;2.03;1.40;;;12.70;77.90;;;;;;6087341;23;20427;-45
2023/04/26 00:22:50;;;;;;;1.83;1.37;;;12.60;77.80;;;;;;6086914;23;20431;-45
2023/04/26 00:25:19;;;;;;;4.10;2.33;;;12.60;77.80;;;;;;6086515;23;20432;-44
2023/04/26 00:27:47;;;;;;;2.43;1.67;;;12.60;77.80;;;;;;6086047;23;20411;-45
2023/04/26 00:30:16;;;;;;;1.70;1.17;;;12.60;77.80;;;;;;6087719;23;20802;-45
2023/04/26 00:32:46;;;;;;;2.37;1.27;;;12.60;77.80;;;;;;6086999;23;20817;-44
2023/04/26 00:35:15;;;;;;;2.20;1.30;;;12.60;77.80;;;;;;6087212;23;20458;-45
2023/04/26 00:37:44;;;;;;;3.10;1.20;;;12.60;77.80;;;;;;6086256;23;20372;-45
2023/04/26 00:40:15;;;;;;;2.63;1.40;;;12.60;79.10;;;;;;6086730;23;20455;-44
2023/04/26 00:42:43;;;;;;;2.20;1.67;;;12.60;77.80;;;;;;6086728;23;20380;-44
2023/04/26 00:45:12;;;;;;;2.03;1.23;;;12.60;79.10;;;;;;6085638;23;20927;-45
2023/04/26 00:47:41;;;;;;;2.03;1.23;;;12.60;77.80;;;;;;6088794;23;20411;-44
2023/04/26 00:50:11;;;;;;;2.23;1.67;;;12.60;77.90;;;;;;6086567;23;20459;-45
2023/04/26 00:52:40;;;;;;;2.47;1.40;;;12.60;77.90;;;;;;6087113;23;20372;-45
2023/04/26 00:55:09;;;;;;;1.87;1.10;;;12.60;77.90;;;;;;6086659;23;20520;-45
2023/04/26 00:57:39;;;;;;;2.47;1.40;;;12.60;77.80;;;;;;6086487;23;20937;-44
2023/04/26 01:00:09;;;;;;;2.97;1.40;;;12.60;77.80;;;;;;6085673;23;20900;-44
2023/04/26 01:02:38;;;;;;;2.40;2.07;;;12.60;77.80;;;;;;6087125;23;20400;-45
2023/04/26 01:05:08;;;;;;;2.20;1.40;;;12.60;77.80;;;;;;6086999;23;20554;-44
2023/04/26 01:07:38;;;;;;;1.90;1.20;;;12.60;77.90;;;;;;6086546;23;20404;-46
2023/04/26 01:10:09;;;;;;;2.30;1.47;;;12.60;77.90;;;;;;6085809;23;20434;-44
2023/04/26 01:12:38;;;;;;;2.07;1.47;;;12.60;77.90;;;;;;6085969;23;20416;-45
2023/04/26 01:15:08;;;;;;;1.67;1.40;;;12.50;77.80;;;;;;6087087;23;20423;-44
2023/04/26 01:17:38;;;;;;;3.37;1.10;;;12.60;79.10;;;;;;6086987;23;20431;-44
2023/04/26 01:20:09;;;;;;;4.13;1.33;;;12.60;77.80;;;;;;6086690;23;20518;-44
2023/04/26 01:22:39;;;;;;;2.70;1.20;;;12.60;77.90;;;;;;6086586;23;20407;-44
2023/04/26 01:25:12;;;;;;;2.70;1.50;;;12.50;77.90;;;;;;6087002;23;20412;-45
2023/04/26 01:27:41;;;;;;;3.20;1.43;;;12.50;77.90;;;;;;6085965;23;20377;-45
2023/04/26 01:30:10;;;;;;;3.40;1.93;;;12.50;78.00;;;;;;6086838;23;20432;-45
2023/04/26 01:32:39;;;;;;;2.23;1.40;;;12.50;77.80;;;;;;6086217;23;20396;-45
2023/04/26 01:35:08;;;;;;;2.47;1.37;;;12.50;77.60;;;;;;6086834;23;20470;-45
2023/04/26 01:37:38;;;;;;;2.30;1.60;;;12.50;77.80;;;;;;6085754;23;20841;-44
2023/04/26 01:40:08;;;;;;;2.57;1.40;;;12.50;77.70;;;;;;6086255;23;20547;-45
2023/04/26 01:42:37;;;;;;;2.67;1.20;;;12.50;77.70;;;;;;6085863;23;20820;-44
2023/04/26 01:45:07;;;;;;;2.40;1.30;;;12.50;77.90;;;;;;6087547;23;20431;-45
2023/04/26 01:47:54;;;;;;;2.10;1.50;;;12.50;77.80;;;;;;6088213;23;20469;-45
2023/04/26 01:50:23;;;;;;;2.20;1.33;;;12.50;77.80;;;;;;6086774;23;20380;-45
2023/04/26 01:52:53;;;;;;;2.60;2.13;;;12.50;77.80;;;;;;6088616;23;20372;-45
2023/04/26 01:55:22;;;;;;;2.90;1.67;;;12.50;77.70;;;;;;6086517;23;20435;-44
2023/04/26 01:57:51;;;;;;;3.17;1.70;;;12.50;77.90;;;;;;6085368;23;20404;-45
2023/04/26 02:00:20;;;;;;;3.00;1.40;;;12.50;77.80;;;;;;6086589;23;20837;-44
2023/04/26 02:02:49;;;;;;;2.70;1.20;;;12.50;77.70;;;;;;6087123;23;20383;-45
2023/04/26 02:05:18;;;;;;;2.40;1.20;;;12.50;77.70;;;;;;6086163;23;20446;-45
2023/04/26 02:07:47;;;;;;;2.87;1.40;;;12.50;77.80;;;;;;6086222;23;20953;-45
2023/04/26 02:10:17;;;;;;;5.73;1.43;;;12.50;77.70;;;;;;6086183;23;20388;-43
2023/04/26 02:12:46;;;;;;;2.17;1.40;;;12.50;77.80;;;;;;6062110;23;20395;-45
2023/04/26 02:15:14;;;;;;;2.50;1.77;;;12.50;77.70;;;;;;6084637;23;20447;-45
2023/04/26 02:17:43;;;;;;;1.97;0.97;;;12.50;77.80;;;;;;6086995;23;20392;-45
2023/04/26 02:20:12;;;;;;;2.17;1.40;;;12.40;77.70;;;;;;6086396;23;20419;-45
2023/04/26 02:22:41;;;;;;;3.40;1.60;;;12.50;77.70;;;;;;6087105;23;20471;-45
2023/04/26 02:25:10;;;;;;;2.03;1.23;;;12.50;77.70;;;;;;6085318;23;20439;-45
2023/04/26 02:27:40;;;;;;;1.90;1.10;;;12.40;77.70;;;;;;6086313;23;20451;-44
2023/04/26 02:30:10;;;;;;;1.47;1.00;;;12.40;77.70;;;;;;6086857;23;20392;-44
2023/04/26 02:32:39;;;;;;;2.67;1.30;;;12.40;77.70;;;;;;6086085;23;20732;-45
2023/04/26 02:35:09;;;;;;;3.03;1.60;;;12.40;77.70;;;;;;6084110;23;20800;-45
2023/04/26 02:37:38;;;;;;;2.60;1.67;;;12.40;77.80;;;;;;6085642;23;20502;-45
2023/04/26 02:40:09;;;;;;;1.93;1.23;;;12.40;77.70;;;;;;6087122;23;20427;-45
2023/04/26 02:42:39;;;;;;;1.97;1.20;;;12.40;77.60;;;;;;6085364;23;20427;-44
2023/04/26 02:45:09;;;;;;;1.97;1.13;;;12.40;77.80;;;;;;6086010;23;20420;-44
2023/04/26 02:47:38;;;;;;;2.07;1.40;;;12.40;77.80;;;;;;6086666;23;20856;-45
2023/04/26 02:50:08;;;;;;;2.20;1.60;;;12.40;77.80;;;;;;6086281;23;20718;-45
2023/04/26 02:52:38;;;;;;;2.30;1.30;;;12.40;77.90;;;;;;6086924;23;20387;-44
2023/04/26 02:55:07;;;;;;;2.40;1.57;;;12.40;77.70;;;;;;6086378;23;20802;-45
2023/04/26 02:57:36;;;;;;;3.73;2.00;;;12.40;77.70;;;;;;6086024;23;20723;-44
2023/04/26 03:00:12;;;;;;;2.57;1.57;;;12.40;77.80;;;;;;6086406;23;20376;-44
2023/04/26 03:02:41;;;;;;;1.90;1.17;;;12.30;77.70;;;;;;6086626;23;20454;-45
2023/04/26 03:05:10;;;;;;;2.20;1.40;;;12.30;77.80;;;;;;6084772;23;20737;-45
2023/04/26 03:07:38;;;;;;;2.90;1.40;;;12.40;77.90;;;;;;6085925;23;20385;-44
2023/04/26 03:10:08;;;;;;;2.10;1.10;;;12.30;77.90;;;;;;6081924;23;20723;-45
2023/04/26 03:12:37;;;;;;;3.70;1.40;;;12.30;77.70;;;;;;6085757;23;20910;-45
2023/04/26 03:15:08;;;;;;;2.33;1.30;;;12.30;77.70;;;;;;6086236;23;20436;-45
2023/04/26 03:17:39;;;;;;;4.73;1.40;;;12.40;77.90;;;;;;6086968;23;20381;-45
2023/04/26 03:20:09;;;;;;;2.50;1.20;;;12.30;77.80;;;;;;6084059;23;20399;-46
2023/04/26 03:22:39;;;;;;;1.87;1.17;;;12.30;77.70;;;;;;6085974;23;20559;-45
2023/04/26 03:25:09;;;;;;;4.10;2.20;;;12.30;77.80;;;;;;6085567;23;20443;-44
2023/04/26 03:27:37;;;;;;;2.80;1.17;;;12.30;77.80;;;;;;6085368;23;20400;-45
2023/04/26 03:30:09;;;;;;;2.63;1.20;;;12.30;77.80;;;;;;6085941;23;20475;-44
2023/04/26 03:32:39;;;;;;;2.03;1.40;;;12.30;77.70;;;;;;6086294;23;20376;-45
2023/04/26 03:35:09;;;;;;;3.33;1.20;;;12.30;77.80;;;;;;6086778;23;20436;-44
2023/04/26 03:37:38;;;;;;;3.53;1.30;;;12.30;77.80;;;;;;6084974;23;20420;-44
2023/04/26 03:40:12;;;;;;;2.37;1.07;;;12.30;77.80;;;;;;6086268;23;20388;-45
2023/04/26 03:42:40;;;;;;;2.70;1.50;;;12.30;77.80;;;;;;6085203;23;20419;-45
2023/04/26 03:45:11;;;;;;;2.73;1.60;;;12.20;77.80;;;;;;6085716;23;20408;-45
2023/04/26 03:47:40;;;;;;;3.00;1.33;;;12.30;77.80;;;;;;6086466;23;20459;-44
2023/04/26 03:50:10;;;;;;;2.43;1.60;;;12.20;77.80;;;;;;6086229;23;20372;-44
2023/04/26 03:52:39;;;;;;;3.77;1.37;;;12.30;77.80;;;;;;6087773;23;20407;-44
2023/04/26 03:55:10;;;;;;;2.37;1.33;;;12.20;77.70;;;;;;6086875;23;20474;-45
2023/04/26 03:57:40;;;;;;;3.10;1.57;;;12.20;77.70;;;;;;6086432;23;20391;-43
2023/04/26 04:00:12;;;;;;;1.77;1.47;;;12.20;77.70;;;;;;6087285;23;20392;-44
2023/04/26 04:02:44;;;;;;;2.70;1.40;;;12.20;77.80;;;;;;6088925;23;20372;-45
2023/04/26 04:05:22;;;;;;;2.23;1.43;;;12.20;77.80;;;;;;6086177;23;20439;-45
2023/04/26 04:07:52;;;;;;;3.00;1.33;;;12.20;77.70;;;;;;6087316;23;20391;-45
2023/04/26 04:10:22;;;;;;;2.10;1.30;;;12.20;77.80;;;;;;6087998;23;20438;-45
2023/04/26 04:12:52;;;;;;;3.30;1.57;;;12.20;79.10;;;;;;6086325;23;20403;-45
2023/04/26 04:15:22;;;;;;;2.70;1.10;;;12.20;77.80;;;;;;6086899;23;20467;-44
2023/04/26 04:17:51;;;;;;;1.90;1.33;;;12.20;77.80;;;;;;6087830;23;20379;-44
2023/04/26 04:20:21;;;;;;;2.07;1.43;;;12.20;77.80;;;;;;6087135;23;20396;-45
2023/04/26 04:22:51;;;;;;;4.63;1.43;;;12.20;77.90;;;;;;6087704;23;20376;-45
2023/04/26 04:25:21;;;;;;;1.50;1.13;;;12.20;78.00;;;;;;6084819;23;20436;-44
2023/04/26 04:27:50;;;;;;;2.70;1.77;;;12.20;78.00;;;;;;6084142;23;20934;-45
2023/04/26 04:30:19;;;;;;;2.17;1.30;;;12.20;77.90;;;;;;6083751;23;20389;-45
2023/04/26 04:32:49;;;;;;;2.17;1.33;;;12.20;78.10;;;;;;6085081;23;20420;-44
2023/04/26 04:35:18;;;;;;;2.00;1.40;;;12.20;78.10;;;;;;6083143;23;20748;-44
2023/04/26 04:37:48;;;;;;;2.60;1.40;;;12.10;78.00;;;;;;6084823;23;20405;-44
2023/04/26 04:40:17;;;;;;;3.97;1.50;;;12.10;78.00;;;;;;6083093;23;20869;-45
2023/04/26 04:42:48;;;;;;;2.40;1.60;;;12.10;77.80;;;;;;6084398;23;20400;-45
2023/04/26 04:45:18;;;;;;;2.10;1.30;;;12.10;77.90;;;;;;6084089;23;20965;-45
2023/04/26 04:47:52;;;;;;;3.37;1.77;;;12.10;77.80;;;;;;6087530;23;20383;-44
2023/04/26 04:50:22;;;;;;;2.43;1.30;;;12.10;77.80;;;;;;6087300;23;20396;-44
2023/04/26 04:52:50;;;;;;;2.37;1.67;;;12.10;77.70;;;;;;6063189;23;20871;-45
2023/04/26 04:55:20;;;;;;;2.50;1.43;;;12.10;77.80;;;;;;6087246;23;20501;-44
2023/04/26 04:57:49;;;;;;;2.27;1.20;;;12.10;77.80;;;;;;6086658;23;20482;-45
2023/04/26 05:00:20;;;;;;;1.90;1.40;;;12.10;77.80;;;;;;6086576;23;20756;-45
2023/04/26 05:03:11;;;;;;;1.93;1.33;;;12.10;77.80;;;;;;6087991;23;20400;-45
2023/04/26 05:05:40;;;;;;;1.80;1.30;;;12.10;77.80;;;;;;6087049;23;20416;-45
2023/04/26 05:08:09;;;;;;;1.70;1.20;;;12.10;77.90;;;;;;6087832;23;20412;-43
2023/04/26 05:10:38;;;;;;;2.20;1.50;;;12.10;77.90;;;;;;6087492;23;20723;-44
2023/04/26 05:13:07;;;;;;;3.93;1.80;;;12.10;77.90;;;;;;6087463;23;20706;-44
2023/04/26 05:15:35;;;;;;;1.80;1.30;;;12.10;77.90;;;;;;6085723;23;20456;-44
2023/04/26 05:18:04;;;;;;;3.20;1.53;;;12.10;77.90;;;;;;6087378;23;20478;-44
2023/04/26 05:20:34;;;;;;;3.47;1.80;;;12.10;77.90;;;;;;6088480;23;20396;-46
2023/04/26 05:23:03;;;;;;;3.20;1.90;;;12.10;77.90;;;;;;6086694;23;20442;-44
2023/04/26 05:25:36;;;;;;;2.47;1.80;;;12.10;77.80;;;;;;6085714;23;20443;-45
2023/04/26 05:28:24;;;;;;;3.40;1.80;;;12.10;77.80;;;;;;6085958;23;20438;-44
2023/04/26 05:31:12;;;;;;;2.63;1.77;;;12.10;77.80;;;;;;6087249;23;20446;-44
2023/04/26 05:33:58;;;;;;;2.73;2.00;;;12.00;77.50;;;;;;6087277;23;20404;-45
2023/04/26 05:36:36;;;;;;;2.40;1.67;;;12.00;77.60;;;;;;6085539;23;20457;-45
2023/04/26 05:39:06;;;;;;;3.27;1.80;;;12.00;77.50;;;;;;6087754;23;20399;-44
2023/04/26 05:41:35;;;;;;;2.57;1.57;;;12.00;77.80;;;;;;6062236;23;20946;-44
2023/04/26 05:44:04;;;;;;;2.60;1.80;;;12.00;77.70;;;;;;6086654;23;20466;-44
2023/04/26 05:46:32;;;;;;;2.20;1.70;;;12.00;77.70;;;;;;6086351;23;21199;-44
2023/04/26 05:49:02;;;;;;;2.70;1.63;;;12.00;77.80;;;;;;6087267;23;20429;-45
2023/04/26 05:51:32;;;;;;;2.10;1.40;;;12.00;77.80;;;;;;6085755;23;20440;-44
2023/04/26 05:54:02;;;;;;;3.33;1.90;;;12.00;77.80;;;;;;6086663;23;20761;-44
2023/04/26 05:56:32;;;;;;;2.80;1.50;;;12.00;77.70;;;;;;6086379;23;20815;-44
2023/04/26 05:59:00;;;;;;;3.50;2.30;;;12.00;77.80;;;;;;6086301;23;20398;-45
2023/04/26 06:01:30;;;;;;;1.90;1.40;;;12.00;77.70;;;;;;6085162;23;20451;-43
2023/04/26 06:03:59;;;;;;;2.13;1.30;;;12.00;77.60;;;;;;6086694;23;20396;-42
2023/04/26 06:06:35;;;;;;;2.80;1.60;;;12.00;78.00;;;;;;6085718;23;20446;-45
2023/04/26 06:09:05;;;;;;;1.97;1.50;;;12.00;78.10;;;;;;6086306;23;20907;-44
2023/04/26 06:11:34;;;;;;;1.93;1.30;;;12.00;78.00;;;;;;6084396;23;20440;-45
2023/04/26 06:14:03;;;;;;;4.27;2.40;;;12.00;77.70;;;;;;6085980;23;20445;-44
2023/04/26 06:16:32;;;;;;;2.87;1.30;;;12.00;77.30;;;;;;6086209;23;20444;-44
2023/04/26 06:19:01;;;;;;;2.87;1.90;;;12.00;77.00;;;;;;6086082;23;20763;-44
2023/04/26 06:21:30;;;;;;;4.40;1.73;;;12.00;78.00;;;;;;6082764;23;20522;-45
2023/04/26 06:23:59;;;;;;;3.20;1.70;;;12.00;77.70;;;;;;6085265;23;20383;-44
2023/04/26 06:26:31;;;;;;;3.10;1.97;;;12.00;78.90;;;;;;6084672;23;20444;-44
2023/04/26 06:29:01;;;;;;;3.03;1.80;;;12.00;77.70;;;;;;6083105;23;20406;-44
2023/04/26 06:31:30;;;;;;;2.30;1.47;;;11.90;77.50;;;;;;6082077;23;20707;-43
2023/04/26 06:33:59;;;;;;;3.00;1.40;;;11.90;77.20;;;;;;6087249;23;20373;-45
2023/04/26 06:36:28;;;;;;;3.00;2.13;;;11.90;77.80;;;;;;6084972;23;20525;-45
2023/04/26 06:38:57;;;;;;;5.30;2.20;;;11.90;77.40;;;;;;6087346;23;20455;-45
2023/04/26 06:41:25;;;;;;;2.03;1.53;;;11.90;77.50;;;;;;6085220;23;20829;-44
2023/04/26 06:43:56;;;;;;;4.80;3.13;;;11.90;77.80;;;;;;6086415;23;20901;-45
2023/04/26 06:46:31;;;;;;;2.80;1.60;;;12.00;76.60;;;;;;6085525;23;20438;-45
2023/04/26 06:49:01;;;;;;;5.57;2.00;;;12.00;77.70;;;;;;6088728;23;20450;-45
2023/04/26 06:51:30;;;;;;;2.33;1.43;;;11.90;77.50;;;;;;6084819;22;20432;-45
2023/04/26 06:53:59;;;;;;;3.87;1.70;;;11.90;77.50;;;;;;6086016;23;20403;-43
2023/04/26 06:56:28;;;;;;;3.17;1.67;;;11.90;77.70;;;;;;6084929;23;20448;-45
2023/04/26 06:59:02;;;;;;;3.60;2.03;;;11.90;77.70;;;;;;6085978;23;20395;-45
2023/04/26 07:01:33;;;;;;;3.47;2.30;;;11.90;77.60;;;;;;6084908;23;20435;-44
2023/04/26 07:04:03;;;;;;;4.73;2.57;;;11.90;77.30;;;;;;6086951;23;20372;-43
2023/04/26 07:06:32;;;;;;;5.10;3.30;;;11.90;76.30;;;;;;6086437;23;20446;-45
2023/04/26 07:09:01;;;;;;;2.73;1.63;;;11.90;75.90;;;;;;6086731;23;20388;-45
2023/04/26 07:11:30;;;;;;;3.97;2.77;;;11.90;78.20;;;;;;6084853;23;20446;-44
2023/04/26 07:14:01;;;;;;;6.07;3.80;;;11.90;76.00;;;;;;6061700;23;20388;-44
2023/04/26 07:16:30;;;;;;;5.20;2.17;;;11.90;75.30;;;;;;6084743;23;20444;-45
2023/04/26 07:18:59;;;;;;;2.47;1.80;;;11.90;75.90;;;;;;6086891;23;20503;-43
2023/04/26 07:21:27;;;;;;;2.83;1.80;;;11.90;77.00;;;;;;6085831;23;20999;-45
2023/04/26 07:23:56;;;;;;;2.23;1.50;;;11.90;77.20;;;;;;6088184;23;20395;-45
2023/04/26 07:26:25;;;;;;;2.73;2.10;;;11.90;77.40;;;;;;6086414;23;20447;-45
2023/04/26 07:28:55;;;;;;;2.17;1.60;;;11.90;77.40;;;;;;6087143;23;20408;-44
2023/04/26 07:31:28;;;;;;;3.70;2.30;;;11.90;77.20;;;;;;6086465;23;20770;-45
2023/04/26 07:33:57;;;;;;;2.50;1.90;;;11.90;77.00;;;;;;6088360;23;20368;-45
2023/04/26 07:36:26;;;;;;;2.37;1.57;;;11.90;77.30;;;;;;6085646;23;20452;-45
2023/04/26 07:38:55;;;;;;;3.50;1.83;;;11.90;77.40;;;;;;6088225;23;20691;-44
2023/04/26 07:41:24;;;;;;;2.70;2.43;;;11.90;77.40;;;;;;6085706;23;20505;-43
2023/04/26 07:43:52;;;;;;;2.50;2.00;;;11.90;77.40;;;;;;6086308;23;20399;-44
2023/04/26 07:46:21;;;;;;;2.30;1.33;;;11.90;77.50;;;;;;6086541;23;20439;-45
2023/04/26 07:48:51;;;;;;;4.03;1.90;;;11.90;77.40;;;;;;6087729;23;20782;-45
2023/04/26 07:51:20;;;;;;;2.40;1.70;;;11.90;77.30;;;;;;6086494;23;20447;-45
2023/04/26 07:53:49;;;;;;;2.63;1.90;;;11.90;77.40;;;;;;6086109;23;20383;-44
2023/04/26 07:56:18;;;;;;;4.67;2.40;;;11.90;77.00;;;;;;6086266;23;20782;-45
2023/04/26 07:58:47;;;;;;;5.43;2.30;;;11.90;76.80;;;;;;6088621;23;20387;-43
2023/04/26 08:01:15;;;;;;;2.30;1.30;;;11.90;76.90;;;;;;6087446;23;20466;-45
2023/04/26 08:03:44;;;;;;;1.93;1.40;;;11.90;77.20;;;;;;6087739;23;20426;-44
2023/04/26 08:06:15;;;;;;;2.93;1.90;;;11.90;77.20;;;;;;6086719;23;20451;-45
2023/04/26 08:08:48;;;;;;;3.40;1.83;;;11.90;77.30;;;;;;6087538;23;20376;-45
2023/04/26 08:11:17;;;;;;;3.70;2.50;;;11.90;77.20;;;;;;6086236;23;20426;-45
2023/04/26 08:13:45;;;;;;;3.77;3.03;;;11.90;76.80;;;;;;6087301;23;20787;-44
2023/04/26 08:16:14;;;;;;;2.80;1.67;;;11.90;76.60;;;;;;6087789;23;20447;-45
2023/04/26 08:18:42;;;;;;;2.43;1.40;;;11.90;77.20;;;;;;6087900;23;20420;-45
2023/04/26 08:21:15;;;;;;;2.50;1.50;;;11.90;78.40;;;;;;6086082;23;20459;-44
2023/04/26 08:23:44;;;;;;;3.97;1.93;;;11.90;76.90;;;;;;6086661;23;20491;-43
2023/04/26 08:26:12;;;;;;;2.53;1.50;;;11.90;77.00;;;;;;6086811;23;20419;-44
2023/04/26 08:28:41;;;;;;;3.00;1.73;;;11.90;76.90;;;;;;6083408;23;20373;-45
2023/04/26 08:31:10;;;;;;;2.40;1.43;;;11.90;77.30;;;;;;6086154;23;20439;-44
2023/04/26 08:33:38;;;;;;;2.10;1.40;;;11.90;77.30;;;;;;6087668;23;20907;-44
2023/04/26 08:36:07;;;;;;;2.33;1.27;;;11.90;77.30;;;;;;6085281;23;20526;-44
2023/04/26 08:38:37;;;;;;;2.93;1.83;;;11.90;77.20;;;;;;6086583;23;20493;-45
2023/04/26 08:41:09;;;;;;;2.60;1.57;;;11.90;76.90;;;;;;6086414;23;20515;-44
2023/04/26 08:43:39;;;;;;;2.40;1.60;;;11.90;77.10;;;;;;6085946;23;20408;-44
2023/04/26 08:46:12;;;;;;;2.00;1.30;;;11.90;77.30;;;;;;6108154;23;20431;-47
2023/04/26 08:48:41;;;;;;;2.60;1.30;;;11.90;76.90;;;;;;6088597;23;20381;-45
2023/04/26 08:51:12;;;;;;;2.37;1.67;;;11.90;77.00;;;;;;6086496;23;20436;-44
2023/04/26 08:53:43;;;;;;;2.80;1.77;;;11.90;76.70;;;;;;6088067;23;20442;-43
2023/04/26 08:56:12;;;;;;;3.10;1.80;;;11.90;77.10;;;;;;6086200;23;20430;-43
2023/04/26 08:58:41;;;;;;;2.60;1.63;;;11.90;77.00;;;;;;6086912;23;20481;-46
2023/04/26 09:01:14;;;;;;;4.07;1.60;;;11.90;76.90;;;;;;6087713;23;20432;-45
2023/04/26 09:03:42;;;;;;;4.03;1.77;;;11.90;77.10;;;;;;6087338;23;20388;-44
2023/04/26 09:06:12;;;;;;;4.78;2.60;;;11.90;77.20;;;;;;6086954;23;20408;-45
2023/04/26 09:08:43;;;;;;;5.27;2.60;;;11.80;73.70;;;;;;6086973;23;20152;-45
2023/04/26 09:11:11;;;;;;;3.77;2.30;;;11.80;74.00;;;;;;6088243;23;20384;-45
2023/04/26 09:13:40;;;;;;;3.87;2.10;;;11.80;74.20;;;;;;6086340;23;20400;-44
2023/04/26 09:16:09;;;;;;;3.80;2.20;;;11.80;75.20;;;;;;6086919;23;20494;-45
2023/04/26 09:18:49;;;;;;;3.73;2.67;;;11.80;75.30;;;;;;6089046;23;20416;-43
2023/04/26 09:21:21;;;;;;;4.33;2.20;;;11.80;75.80;;;;;;6086377;23;20969;-44
2023/04/26 09:24:03;;;;;;;2.23;1.57;;;11.80;75.90;;;;;;6086831;23;20720;-44
2023/04/26 09:26:31;;;;;;;5.83;2.40;;;11.80;75.70;;;;;;6085267;23;20493;-45
2023/04/26 09:29:14;;;;;;;3.10;1.63;;;11.80;76.00;;;;;;6087214;23;20380;-45
2023/04/26 09:31:44;;;;;;;2.83;2.00;;;11.80;76.20;;;;;;6085916;23;20442;-45
2023/04/26 09:34:16;;;;;;;3.63;1.90;;;11.70;76.30;;;;;;6087327;23;20388;-45
2023/04/26 09:36:52;;;;;;;4.20;1.77;;;11.70;76.00;;;;;;6086583;23;20493;-45
2023/04/26 09:39:43;;;;;;;6.00;1.80;;;11.80;76.10;;;;;;6111616;23;20477;-45
2023/04/26 09:42:11;;;;;;;3.93;2.00;;;11.80;76.00;;;;;;6101891;23;20446;-45
2023/04/26 09:44:40;;;;;;;3.10;1.67;;;11.80;75.90;;;;;;6087582;23;20384;-44
2023/04/26 09:47:10;;;;;;;4.00;2.47;;;11.80;76.30;;;;;;6086227;23;20470;-45
2023/04/26 09:49:47;;;;;;;3.90;1.93;;;11.80;76.60;;;;;;6089655;23;20434;-44
2023/04/26 09:52:17;;;;;;;3.20;1.87;;;11.80;76.10;;;;;;6085291;23;20497;-45
2023/04/26 09:54:50;;;;;;;2.43;1.77;;;11.80;76.60;;;;;;6112184;23;20388;-45
2023/04/26 09:57:21;;;;;;;3.70;1.73;;;11.80;76.60;;;;;;6085734;23;20489;-45
2023/04/26 09:59:51;;;;;;;4.17;1.70;;;11.80;76.90;;;;;;6087702;23;20375;-45
2023/04/26 10:02:24;;;;;;;2.73;1.80;;;11.80;76.90;;;;;;6086068;23;20440;-45
2023/04/26 10:04:55;;;;;;;3.03;1.90;;;11.80;76.80;;;;;;6087658;23;20861;-44
2023/04/26 10:07:25;;;;;;;2.03;1.70;;;11.80;76.80;;;;;;6087367;23;20447;-43
2023/04/26 10:09:58;;;;;;;2.53;1.70;;;11.80;76.80;;;;;;6087232;23;20867;-45
2023/04/26 10:12:26;;;;;;;2.13;1.63;;;11.80;76.60;;;;;;6086016;23;20944;-44
2023/04/26 10:14:56;;;;;;;3.77;2.07;;;11.80;76.80;;;;;;6087527;23;20450;-44
2023/04/26 10:17:25;;;;;;;2.40;1.50;;;11.80;76.80;;;;;;6086667;23;20923;-43
2023/04/26 10:19:57;;;;;;;2.60;2.00;;;11.80;76.00;;;;;;6086781;23;20431;-43
2023/04/26 10:22:32;;;;;;;3.23;1.70;;;11.80;76.00;;;;;;6085724;23;20810;-43
2023/04/26 10:25:02;;;;;;;2.73;1.63;;;11.80;76.00;;;;;;6088621;23;20383;-45
2023/04/26 10:27:50;;;;;;;2.30;1.50;;;11.80;75.50;;;;;;6086179;23;20945;-45
2023/04/26 10:30:25;;;;;;;2.77;1.47;;;11.80;76.00;;;;;;6087986;23;20395;-44
2023/04/26 10:33:15;;;;;;;4.10;2.27;;;11.80;76.30;;;;;;6087678;23;20703;-45
2023/04/26 10:36:06;;;;;;;5.43;1.80;;;11.80;75.90;;;;;;6086772;23;20422;-45
2023/04/26 10:38:36;;;;;;;3.07;1.67;;;11.80;76.50;;;;;;6083623;23;20495;-45
2023/04/26 10:41:35;;;;;;;3.90;1.70;;;11.80;76.40;;;;;;6086170;23;20436;-45
2023/04/26 10:44:37;;;;;;;4.17;1.50;;;11.80;76.30;;;;;;6086815;23;20898;-45
2023/04/26 10:47:07;;;;;;;2.20;1.80;;;11.80;76.70;;;;;;6091133;23;20448;-45
2023/04/26 10:49:47;;;;;;;3.57;1.90;;;11.80;76.80;;;;;;6087129;23;20438;-45
2023/04/26 10:52:21;;;;;;;2.03;1.50;;;11.80;76.70;;;;;;6085557;23;20440;-44
2023/04/26 10:54:57;;;;;;;4.40;1.87;;;11.80;76.60;;;;;;6087306;23;20379;-45
2023/04/26 10:57:48;;;;;;;2.77;1.40;;;11.80;76.50;;;;;;6086069;23;20813;-45
2023/04/26 11:00:19;;;;;;;2.63;1.87;;;11.80;76.50;;;;;;6087208;23;20425;-45
2023/04/26 11:02:57;;;;;;;2.77;1.60;;;11.80;76.40;;;;;;6087584;23;20901;-45
2023/04/26 11:05:54;;;;;;;3.77;1.50;;;11.80;76.80;;;;;;6086238;23;20458;-45
2023/04/26 11:08:28;;;;;;;1.93;1.27;;;11.80;76.00;;;;;;6088526;23;20486;-44
2023/04/26 11:11:04;;;;;;;3.43;1.50;;;11.80;76.50;;;;;;6086569;23;20377;-42
2023/04/26 11:13:36;;;;;;;2.23;1.60;;;11.80;76.40;;;;;;6086538;23;20380;-45
2023/04/26 11:16:06;;;;;;;3.17;1.70;;;11.80;76.30;;;;;;6087653;23;20475;-44
2023/04/26 11:18:36;;;;;;;3.77;2.07;;;11.80;76.00;;;;;;6088498;23;20447;-45
2023/04/26 11:21:05;;;;;;;2.63;2.30;;;11.80;76.70;;;;;;6086636;23;20416;-44
2023/04/26 11:23:34;;;;;;;2.30;1.23;;;11.80;76.20;;;;;;6086917;23;20400;-45
2023/04/26 11:26:04;;;;;;;2.53;2.00;;;11.90;76.70;;;;;;6085650;23;20447;-45
2023/04/26 11:28:35;;;;;;;1.90;1.37;;;11.80;76.40;;;;;;6085563;23;20700;-44
2023/04/26 11:31:04;;;;;;;2.20;1.23;;;11.80;76.40;;;;;;6085389;23;20751;-45
2023/04/26 11:33:34;;;;;;;3.07;1.50;;;11.90;76.80;;;;;;6086373;23;20507;-45
2023/04/26 11:36:02;;;;;;;2.10;1.60;;;11.80;76.60;;;;;;6085006;23;20439;-44
2023/04/26 11:38:31;;;;;;;2.50;1.93;;;11.90;76.80;;;;;;6086628;23;20428;-45
2023/04/26 11:41:00;;;;;;;2.80;1.57;;;11.80;76.60;;;;;;6086302;23;20453;-44
2023/04/26 11:43:37;;;;;;;3.10;1.43;;;11.90;76.60;;;;;;6085276;23;20761;-46
2023/04/26 11:46:07;;;;;;;3.00;1.30;;;11.90;76.80;;;;;;6085899;23;20441;-44
2023/04/26 11:48:37;;;;;;;2.10;1.40;;;11.90;76.90;;;;;;6086959;23;20386;-44
2023/04/26 11:51:07;;;;;;;2.20;1.53;;;11.90;78.10;;;;;;6085615;23;20463;-44
2023/04/26 11:53:36;;;;;;;2.50;1.47;;;11.90;77.00;;;;;;6088459;23;20400;-45
2023/04/26 11:56:13;;;;;;;2.40;1.63;;;11.90;76.90;;;;;;6087029;23;20411;-44
2023/04/26 11:58:44;;;;;;;3.57;2.00;;;11.90;76.80;;;;;;6085612;23;20381;-44
2023/04/26 12:01:20;;;;;;;2.10;1.47;;;11.90;76.30;;;;;;6086949;23;20522;-44
2023/04/26 12:03:52;;;;;;;2.77;1.60;;;11.90;76.70;;;;;;6087945;23;20376;-43
2023/04/26 12:06:29;;;;;;;4.33;1.50;;;11.90;76.30;;;;;;6087363;23;20415;-43
2023/04/26 12:08:57;;;;;;;3.07;1.77;;;11.90;76.80;;;;;;6087143;23;20384;-44
2023/04/26 12:11:26;;;;;;;2.93;1.57;;;11.90;76.70;;;;;;6086428;23;20946;-44
2023/04/26 12:13:58;;;;;;;2.73;1.40;;;11.90;76.40;;;;;;6086868;23;20867;-44
2023/04/26 12:16:26;;;;;;;2.67;1.60;;;11.90;76.40;;;;;;6086434;23;20511;-43
2023/04/26 12:18:56;;;;;;;2.73;2.40;;;11.90;76.50;;;;;;6086730;23;20399;-44
2023/04/26 12:21:26;;;;;;;3.27;1.90;;;11.90;76.70;;;;;;6086605;23;20772;-44
2023/04/26 12:23:58;;;;;;;2.63;1.87;;;11.90;76.60;;;;;;6087155;23;20438;-44
2023/04/26 12:26:44;;;;;;;2.63;1.60;;;11.90;76.50;;;;;;6088651;23;20773;-44
2023/04/26 12:29:17;;;;;;;2.50;1.47;;;11.90;76.20;;;;;;6088738;23;20392;-44
2023/04/26 12:31:46;;;;;;;2.73;1.80;;;12.00;76.40;;;;;;6086326;23;20436;-45
2023/04/26 12:34:14;;;;;;;2.40;1.63;;;11.90;76.60;;;;;;6086492;23;20396;-44
2023/04/26 12:36:43;;;;;;;3.00;1.90;;;12.00;76.20;;;;;;6085593;23;20440;-44
2023/04/26 12:39:15;;;;;;;2.13;1.77;;;12.00;76.20;;;;;;6087922;23;20747;-44
2023/04/26 12:41:45;;;;;;;3.00;1.83;;;12.00;76.10;;;;;;6086625;23;20467;-45
2023/04/26 12:44:13;;;;;;;3.10;1.80;;;12.00;75.20;;;;;;6087065;23;20495;-44
2023/04/26 12:46:43;;;;;;;4.53;1.93;;;12.00;76.40;;;;;;6086920;23;20435;-44
2023/04/26 12:49:12;;;;;;;2.53;1.70;;;12.00;76.60;;;;;;6088002;23;20431;-44
2023/04/26 12:51:40;;;;;;;2.63;1.73;;;12.00;76.20;;;;;;6086261;23;20436;-44
2023/04/26 12:54:11;;;;;;;3.00;1.93;;;12.00;75.70;;;;;;6088086;23;20423;-44
2023/04/26 12:56:43;;;;;;;2.20;1.70;;;12.00;76.60;;;;;;6087028;23;20526;-44
2023/04/26 12:59:11;;;;;;;3.13;1.50;;;12.00;76.50;;;;;;6087890;23;20776;-44
2023/04/26 13:01:40;;;;;;;2.70;1.37;;;12.00;76.50;;;;;;6085260;23;20531;-44
2023/04/26 13:04:10;;;;;;;2.47;1.47;;;12.00;76.80;;;;;;6087790;23;20424;-44
2023/04/26 13:06:39;;;;;;;4.87;1.33;;;12.00;77.10;;;;;;6085461;23;20436;-43